createdAt,value
2018-02-16T00:01:50.089Z,101298.58
2018-02-16T00:06:51.468Z,101314.98
2018-02-16T00:11:52.811Z,101311.09
2018-02-16T00:16:54.923Z,101310.67
2018-02-16T00:21:56.985Z,101320.59
2018-02-16T00:26:58.340Z,101328.77
2018-02-16T00:31:59.681Z,101331.35
2018-02-16T00:37:01.078Z,101333.06
2018-02-16T00:42:02.415Z,101336.95
2018-02-16T00:47:03.739Z,101331.75
2018-02-16T00:52:05.853Z,101340.81
2018-02-16T00:57:07.188Z,101340.81
2018-02-16T01:02:08.520Z,101346.85
2018-02-16T01:07:09.862Z,101349.42
2018-02-16T01:12:11.251Z,101351.59
2018-02-16T01:17:12.606Z,101359.36
2018-02-16T01:22:13.962Z,101366.25
2018-02-16T01:27:15.305Z,101372.31
2018-02-16T01:32:17.379Z,101386.11
2018-02-16T01:37:18.768Z,101386.53
2018-02-16T01:42:20.132Z,101408.53
2018-02-16T01:47:21.534Z,101397.73
2018-02-16T01:52:22.895Z,101409.84
2018-02-16T01:57:24.290Z,101412.42
2018-02-16T02:02:25.643Z,101405.58
2018-02-16T02:07:26.984Z,101407.75
2018-02-16T02:12:28.315Z,101415.95
2018-02-16T02:17:29.627Z,101415.12
2018-02-16T02:22:31.691Z,101406.91
2018-02-16T02:27:33.043Z,101415.55
2018-02-16T02:32:34.407Z,101412.98
2018-02-16T02:37:36.506Z,101422.45
2018-02-16T02:42:38.590Z,101430.66
2018-02-16T02:47:39.942Z,101431.50
2018-02-16T02:52:41.288Z,101434.95
2018-02-16T02:57:48.892Z,101436.67
2018-02-16T03:02:50.239Z,101432.78
2018-02-16T03:07:52.291Z,101436.22
2018-02-16T03:12:53.700Z,101440.11
2018-02-16T03:17:55.065Z,101450.08
2018-02-16T03:22:56.429Z,101449.65
2018-02-16T03:27:57.776Z,101463.05
2018-02-16T03:32:59.175Z,101472.56
2018-02-16T03:38:00.550Z,101474.29
2018-02-16T03:43:01.953Z,101475.16
2018-02-16T03:48:03.299Z,101482.89
2018-02-16T03:53:04.651Z,101494.92
2018-02-16T03:58:06.803Z,101500.99
2018-02-16T04:03:08.147Z,101504.86
2018-02-16T04:08:10.227Z,101516.48
2018-02-16T04:13:13.392Z,101522.97
2018-02-16T04:18:14.784Z,101531.64
2018-02-16T04:23:16.130Z,101530.76
2018-02-16T04:28:17.476Z,101535.11
2018-02-16T04:33:18.789Z,101537.24
2018-02-16T04:38:20.126Z,101534.27
2018-02-16T04:43:22.223Z,101547.23
2018-02-16T04:48:23.563Z,101546.80
2018-02-16T04:53:24.967Z,101550.73
2018-02-16T04:58:26.341Z,101547.23
2018-02-16T05:03:27.690Z,101548.05
2018-02-16T05:08:29.832Z,101552.37
2018-02-16T05:13:31.161Z,101554.57
2018-02-16T05:18:32.508Z,101563.17
2018-02-16T05:23:33.826Z,101569.67
2018-02-16T05:28:35.230Z,101583.48
2018-02-16T05:33:37.610Z,101568.75
2018-02-16T05:38:39.952Z,101578.65
2018-02-16T05:43:42.186Z,101588.16
2018-02-16T05:48:43.617Z,101589.03
2018-02-16T05:53:44.990Z,101595.91
2018-02-16T05:58:47.069Z,101611.01
2018-02-16T06:03:48.415Z,101610.17
2018-02-16T06:08:49.766Z,101631.23
2018-02-16T06:13:51.150Z,101647.23
2018-02-16T06:18:52.508Z,101649.66
2018-02-16T06:23:53.837Z,101657.11
2018-02-16T06:28:55.197Z,101672.16
2018-02-16T06:33:56.545Z,101652.27
2018-02-16T06:38:57.887Z,101677.75
2018-02-16T06:43:59.205Z,101678.19
2018-02-16T06:49:01.282Z,101674.36
2018-02-16T06:54:02.638Z,101690.28
2018-02-16T06:59:03.965Z,101691.56
2018-02-16T07:04:05.331Z,101706.29
2018-02-16T07:09:06.754Z,101703.34
2018-02-16T07:14:08.168Z,101720.91
2018-02-16T07:19:10.230Z,101724.55
2018-02-16T07:24:11.647Z,101729.31
2018-02-16T07:29:13.013Z,101742.34
2018-02-16T07:34:14.403Z,101751.03
2018-02-16T07:39:15.761Z,101748.91
2018-02-16T07:44:17.078Z,101756.58
2018-02-16T07:49:18.446Z,101758.83
2018-02-16T07:54:19.823Z,101758.45
2018-02-16T07:59:21.164Z,101760.27
2018-02-16T08:04:22.505Z,101776.31
2018-02-16T08:09:23.817Z,101775.93
2018-02-16T08:14:25.163Z,101785.48
2018-02-16T08:19:27.276Z,101795.89
2018-02-16T08:24:29.375Z,101811.14
2018-02-16T08:29:31.438Z,101825.45
2018-02-16T08:34:32.768Z,101837.25
2018-02-16T08:39:34.834Z,101836.50
2018-02-16T08:44:36.218Z,101847.34
2018-02-16T08:49:37.555Z,101853.42
2018-02-16T08:54:39.651Z,101863.00
2018-02-16T08:59:40.992Z,101862.16
2018-02-16T09:04:42.325Z,101864.83
2018-02-16T09:09:43.683Z,101873.97
2018-02-16T09:14:45.080Z,101874.41
2018-02-16T09:19:46.391Z,101874.05
2018-02-16T09:24:47.707Z,101879.70
2018-02-16T09:29:49.784Z,101885.34
2018-02-16T09:34:51.146Z,101897.10
2018-02-16T09:39:52.646Z,101899.73
2018-02-16T09:44:54.006Z,101906.72
2018-02-16T09:49:55.338Z,101911.02
2018-02-16T09:54:59.734Z,101919.75
2018-02-16T10:00:01.828Z,101916.34
2018-02-16T10:05:03.258Z,101918.53
2018-02-16T10:10:04.638Z,101941.55
2018-02-16T10:15:05.990Z,101950.68
2018-02-16T10:20:07.341Z,101952.41
2018-02-16T10:25:08.707Z,101957.59
2018-02-16T10:30:10.114Z,101967.16
2018-02-16T10:35:11.411Z,101965.88
2018-02-16T10:40:12.757Z,101975.87
2018-02-16T10:45:14.806Z,101982.34
2018-02-16T10:50:16.146Z,101981.93
2018-02-16T10:55:17.511Z,101979.34
2018-02-16T11:00:24.933Z,101984.98
2018-02-16T11:05:32.505Z,101995.40
2018-02-16T11:10:34.623Z,101997.97
2018-02-16T11:15:36.747Z,101985.31
2018-02-16T11:20:38.161Z,102000.06
2018-02-16T11:25:39.548Z,101998.33
2018-02-16T11:30:40.896Z,102002.66
2018-02-16T11:35:43.007Z,102003.44
2018-02-16T11:40:44.364Z,102010.42
2018-02-16T11:45:45.731Z,102015.08
2018-02-16T11:50:47.079Z,102004.13
2018-02-16T11:55:49.155Z,102013.84
2018-02-16T12:00:50.527Z,102024.69
2018-02-16T12:05:51.844Z,102011.99
2018-02-16T12:10:53.182Z,102028.07
2018-02-16T12:15:54.518Z,102022.73
2018-02-16T12:20:55.847Z,102017.30
2018-02-16T12:25:57.981Z,102026.81
2018-02-16T12:30:59.352Z,102027.41
2018-02-16T12:36:00.692Z,102024.83
2018-02-16T12:41:02.096Z,102030.63
2018-02-16T12:46:04.232Z,102033.77
2018-02-16T12:51:05.626Z,102033.62
2018-02-16T12:56:06.969Z,102033.92
2018-02-16T13:01:08.335Z,102037.64
2018-02-16T13:06:09.696Z,102029.01
2018-02-16T13:11:11.027Z,102034.17
2018-02-16T13:16:12.420Z,102037.30
2018-02-16T13:21:13.796Z,102032.41
2018-02-16T13:26:15.954Z,102031.18
2018-02-16T13:31:18.046Z,102044.69
2018-02-16T13:36:19.402Z,102044.62
2018-02-16T13:41:20.788Z,102036.02
2018-02-16T13:46:22.116Z,102047.09
2018-02-16T13:51:23.426Z,102048.47
2018-02-16T13:56:25.560Z,102052.88
2018-02-16T14:01:27.262Z,102060.53
2018-02-16T14:06:28.973Z,102059.75
2018-02-16T14:11:30.427Z,102061.80
2018-02-16T14:16:33.763Z,102063.59
2018-02-16T14:21:35.143Z,102066.16
2018-02-16T14:26:36.580Z,102073.91
2018-02-16T14:31:38.171Z,102073.94
2018-02-16T14:36:39.535Z,102080.85
2018-02-16T14:41:40.901Z,102082.59
2018-02-16T14:46:43.024Z,102073.94
2018-02-16T14:51:45.107Z,102081.47
2018-02-16T14:56:46.479Z,102081.47
2018-02-16T15:01:47.822Z,102086.21
2018-02-16T15:06:49.215Z,102085.22
2018-02-16T15:11:50.552Z,102083.47
2018-02-16T15:16:51.939Z,102080.48
2018-02-16T15:21:53.287Z,102081.00
2018-02-16T15:26:54.794Z,102076.34
2018-02-16T15:31:56.178Z,102082.83
2018-02-16T15:36:57.579Z,102077.58
2018-02-16T15:41:59.129Z,102082.34
2018-02-16T15:47:00.547Z,102082.78
2018-02-16T15:52:02.003Z,102093.23
2018-02-16T15:57:03.387Z,102091.99
2018-02-16T16:02:04.746Z,102096.41
2018-02-16T16:07:06.352Z,102092.92
2018-02-16T16:12:07.856Z,102096.02
2018-02-16T16:17:09.233Z,102096.09
2018-02-16T16:22:10.698Z,102103.48
2018-02-16T16:27:12.086Z,102110.02
2018-02-16T16:32:14.514Z,102110.89
2018-02-16T16:37:15.998Z,102116.98
2018-02-16T16:42:17.346Z,102120.45
2018-02-16T16:47:18.663Z,102130.89
2018-02-16T16:52:20.022Z,102122.19
2018-02-16T16:57:21.421Z,102131.28
2018-02-16T17:02:22.746Z,102141.19
2018-02-16T17:07:24.134Z,102140.66
2018-02-16T17:12:25.611Z,102152.73
2018-02-16T17:17:27.733Z,102163.55
2018-02-16T17:22:29.154Z,102164.88
2018-02-16T17:27:30.522Z,102166.20
2018-02-16T17:32:31.924Z,102170.95
2018-02-16T17:37:33.346Z,102177.89
2018-02-16T17:42:34.762Z,102176.11
2018-02-16T17:47:36.123Z,102186.02
2018-02-16T17:52:37.524Z,102170.27
2018-02-16T17:57:38.864Z,102192.73
2018-02-16T18:02:40.265Z,102197.88
2018-02-16T18:07:41.629Z,102206.95
2018-02-16T18:12:43.072Z,102205.69
2018-02-16T18:17:44.387Z,102215.20
2018-02-16T18:22:45.753Z,102203.37
2018-02-16T18:27:47.078Z,102201.57
2018-02-16T18:32:48.458Z,102191.94
2018-02-16T18:37:49.809Z,102193.22
2018-02-16T18:42:51.222Z,102203.13
2018-02-16T18:47:52.579Z,102202.79
2018-02-16T18:52:53.986Z,102188.95
2018-02-16T18:57:56.208Z,102194.47
2018-02-16T19:02:59.031Z,102196.48
2018-02-16T19:08:00.412Z,102197.21
2018-02-16T19:13:02.012Z,102210.55
2018-02-16T19:18:03.803Z,102205.66
2018-02-16T19:23:05.596Z,102201.18
2018-02-16T19:28:11.274Z,102196.78
2018-02-16T19:33:14.251Z,102200.63
2018-02-16T19:38:15.681Z,102207.38
2018-02-16T19:43:17.442Z,102199.97
2018-02-16T19:48:18.844Z,102201.27
2018-02-16T19:53:20.983Z,102208.62
2018-02-16T19:58:22.343Z,102211.55
2018-02-16T20:03:24.974Z,102197.19
2018-02-16T20:08:26.470Z,102195.29
2018-02-16T20:13:28.734Z,102190.81
2018-02-16T20:18:30.172Z,102192.89
2018-02-16T20:23:31.572Z,102197.59
2018-02-16T20:28:33.687Z,102204.44
2018-02-16T20:33:35.140Z,102203.53
2018-02-16T20:38:36.585Z,102209.77
2018-02-16T20:43:38.162Z,102204.05
2018-02-16T20:48:40.347Z,102212.72
2018-02-16T20:53:41.700Z,102214.81
2018-02-16T20:58:43.052Z,102220.27
2018-02-16T21:03:44.469Z,102220.17
2018-02-16T21:08:45.886Z,102220.25
2018-02-16T21:13:47.216Z,102221.95
2018-02-16T21:18:49.306Z,102226.44
2018-02-16T21:23:51.388Z,102228.93
2018-02-16T21:28:52.743Z,102235.53
2018-02-16T21:33:54.110Z,102235.09
2018-02-16T21:38:56.257Z,102238.88
2018-02-16T21:43:57.602Z,102234.16
2018-02-16T21:48:59.704Z,102237.73
2018-02-16T21:54:01.051Z,102230.77
2018-02-16T21:59:02.475Z,102233.63
2018-02-16T22:04:03.883Z,102230.64
2018-02-16T22:09:05.960Z,102220.70
2018-02-16T22:14:07.465Z,102221.23
2018-02-16T22:19:08.854Z,102225.14
2018-02-16T22:24:10.214Z,102223.83
2018-02-16T22:29:11.553Z,102217.72
2018-02-16T22:34:12.939Z,102215.30
2018-02-16T22:39:15.033Z,102216.91
2018-02-16T22:44:16.403Z,102214.50
2018-02-16T22:49:17.792Z,102215.53
2018-02-16T22:54:19.179Z,102224.84
2018-02-16T22:59:20.520Z,102221.09
2018-02-16T23:04:21.844Z,102217.98
2018-02-16T23:09:23.240Z,102226.89
2018-02-16T23:14:24.563Z,102222.84
2018-02-16T23:19:25.989Z,102234.50
2018-02-16T23:24:27.430Z,102225.42
2018-02-16T23:29:29.536Z,102236.14
2018-02-16T23:34:30.940Z,102239.58
2018-02-16T23:39:32.334Z,102240.99
2018-02-16T23:44:33.632Z,102236.35
2018-02-16T23:49:35.012Z,102246.23
2018-02-16T23:54:36.387Z,102241.91
2018-02-16T23:59:37.766Z,102237.20
